createdAt,value
2022-07-28T00:02:43.877Z,98680.28
2022-07-28T00:07:46.760Z,98681.09
2022-07-28T00:12:49.519Z,98676.91
2022-07-28T00:17:53.720Z,98675.78
2022-07-28T00:22:56.463Z,98671.13
2022-07-28T00:27:59.230Z,98671.81
2022-07-28T00:33:03.356Z,98675.88
2022-07-28T00:38:07.515Z,98668.69
2022-07-28T00:43:14.175Z,98668.56
2022-07-28T00:48:18.704Z,98661.91
2022-07-28T00:53:21.900Z,98665.84
2022-07-28T00:58:26.895Z,98663.75
2022-07-28T01:03:32.382Z,98656.28
2022-07-28T01:08:44.726Z,98655.41
2022-07-28T01:13:55.420Z,98650.47
2022-07-28T01:19:10.730Z,98642.03
2022-07-28T01:24:24.063Z,98632.88
2022-07-28T01:29:45.349Z,98644.66
2022-07-28T01:34:53.252Z,98647.06
2022-07-28T01:39:58.658Z,98643.09
2022-07-28T01:45:04.087Z,98638.31
2022-07-28T01:50:11.551Z,98632.13
2022-07-28T01:55:15.968Z,98632.41
2022-07-28T02:00:19.262Z,98624.09
2022-07-28T02:05:25.558Z,98614.41
2022-07-28T02:10:30.134Z,98613.06
2022-07-28T02:15:33.523Z,98613.75
2022-07-28T02:20:37.951Z,98609.75
2022-07-28T02:25:42.637Z,98604.69
2022-07-28T02:30:51.624Z,98594.84
2022-07-28T02:35:57.606Z,98596.09
2022-07-28T02:41:05.621Z,98593.84
2022-07-28T02:46:12.386Z,98589.44
2022-07-28T02:51:18.422Z,98583.38
2022-07-28T02:56:22.795Z,98588.72
2022-07-28T03:01:27.311Z,98590.75
2022-07-28T03:06:33.416Z,98592.41
2022-07-28T03:11:36.207Z,98589.97
2022-07-28T03:16:39.168Z,98592.09
2022-07-28T03:21:43.334Z,98583.47
2022-07-28T03:26:54.649Z,98580.38
2022-07-28T03:32:00.494Z,98579.91
2022-07-28T03:37:11.365Z,98578.94
2022-07-28T03:42:16.861Z,98579.84
2022-07-28T03:47:22.873Z,98573.25
2022-07-28T03:52:27.022Z,98579.06
2022-07-28T03:57:30.126Z,98582.84
2022-07-28T04:02:34.566Z,98587.22
2022-07-28T04:07:38.855Z,98582.16
2022-07-28T04:12:53.552Z,98582.25
2022-07-28T04:17:57.159Z,98580.44
2022-07-28T04:23:01.260Z,98579.06
2022-07-28T04:28:04.154Z,98580.19
2022-07-28T04:33:08.502Z,98584.03
2022-07-28T04:38:14.709Z,98585.78
2022-07-28T04:43:17.936Z,98577.97
2022-07-28T04:48:23.285Z,98572.09
2022-07-28T04:53:28.415Z,98568.50
2022-07-28T04:58:31.201Z,98573.91
2022-07-28T05:03:36.515Z,98570.03
2022-07-28T05:08:40.699Z,98575.00
2022-07-28T05:13:43.497Z,98569.63
2022-07-28T05:18:46.333Z,98568.41
2022-07-28T05:23:50.440Z,98564.09
2022-07-28T05:28:53.357Z,98567.91
2022-07-28T05:33:56.093Z,98571.28
2022-07-28T05:39:01.169Z,98573.50
2022-07-28T05:44:04.010Z,98572.16
2022-07-28T05:49:06.821Z,98576.72
2022-07-28T05:54:11.422Z,98574.44
2022-07-28T05:59:14.946Z,98577.00
2022-07-28T06:04:28.406Z,98572.38
2022-07-28T06:09:33.043Z,98564.59
2022-07-28T06:14:35.792Z,98570.81
2022-07-28T06:19:38.600Z,98565.34
2022-07-28T06:24:43.048Z,98564.75
2022-07-28T06:29:45.803Z,98561.72
2022-07-28T06:34:48.563Z,98564.19
2022-07-28T06:39:52.966Z,98571.09
2022-07-28T06:44:59.264Z,98559.13
2022-07-28T06:50:02.668Z,98562.34
2022-07-28T06:55:07.801Z,98565.50
2022-07-28T07:00:14.425Z,98582.81
2022-07-28T07:05:17.244Z,98576.19
2022-07-28T07:10:21.420Z,98574.38
2022-07-28T07:15:25.057Z,98573.91
2022-07-28T07:20:28.639Z,98570.03
2022-07-28T07:25:32.850Z,98573.09
2022-07-28T07:30:35.692Z,98562.31
2022-07-28T07:35:38.965Z,98554.91
2022-07-28T07:40:44.047Z,98549.84
2022-07-28T07:45:46.925Z,98553.25
2022-07-28T07:50:53.771Z,98547.66
2022-07-28T07:55:58.760Z,98548.09
2022-07-28T08:01:01.574Z,98548.66
2022-07-28T08:06:04.620Z,98544.59
2022-07-28T08:11:10.946Z,98545.06
2022-07-28T08:16:13.793Z,98544.63
2022-07-28T08:21:18.108Z,98543.31
2022-07-28T08:26:22.299Z,98550.03
2022-07-28T08:31:25.093Z,98539.25
2022-07-28T08:36:27.892Z,98544.47
2022-07-28T08:41:43.067Z,98536.78
2022-07-28T08:46:49.172Z,98542.78
2022-07-28T08:51:55.320Z,98539.72
2022-07-28T08:57:00.387Z,98533.84
2022-07-28T09:02:03.199Z,98530.69
2022-07-28T09:07:06.821Z,98530.44
2022-07-28T09:12:11.355Z,98527.78
2022-07-28T09:17:14.339Z,98533.22
2022-07-28T09:22:17.189Z,98526.97
2022-07-28T09:27:26.830Z,98513.78
2022-07-28T09:32:33.353Z,98511.81
2022-07-28T09:37:36.856Z,98516.88
2022-07-28T09:42:50.170Z,98518.09
2022-07-28T09:48:10.061Z,98501.66
2022-07-28T09:53:23.898Z,98508.84
2022-07-28T09:58:32.511Z,98506.22
2022-07-28T10:03:36.744Z,98500.84
2022-07-28T10:08:41.878Z,98502.31
2022-07-28T10:14:02.694Z,98490.59
2022-07-28T10:19:06.825Z,98492.41
2022-07-28T10:24:12.567Z,98487.97
2022-07-28T10:29:19.319Z,98486.34
2022-07-28T10:34:24.913Z,98478.88
2022-07-28T10:39:33.584Z,98473.78
2022-07-28T10:44:39.131Z,98468.91
2022-07-28T10:49:42.763Z,98469.19
2022-07-28T10:54:53.146Z,98471.38
2022-07-28T11:00:12.732Z,98465.59
2022-07-28T11:05:45.286Z,98469.72
2022-07-28T11:10:50.111Z,98460.88
2022-07-28T11:15:55.807Z,98458.19
2022-07-28T11:21:09.144Z,98450.41
2022-07-28T11:26:35.339Z,98443.16
2022-07-28T11:31:56.574Z,98447.16
2022-07-28T11:37:02.944Z,98443.84
2022-07-28T11:42:26.846Z,98438.53
2022-07-28T11:47:31.745Z,98425.25
2022-07-28T11:52:38.320Z,98426.72
2022-07-28T11:57:44.028Z,98427.78
2022-07-28T12:02:47.394Z,98433.25
2022-07-28T12:07:52.983Z,98419.16
2022-07-28T12:12:57.701Z,98418.59
2022-07-28T12:18:01.342Z,98421.44
2022-07-28T12:23:07.512Z,98422.06
2022-07-28T12:28:21.496Z,98416.31
2022-07-28T12:38:54.567Z,98413.13
2022-07-28T12:43:57.447Z,98405.13
2022-07-28T12:49:03.170Z,98409.03
2022-07-28T12:54:10.005Z,98404.63
2022-07-28T12:59:13.600Z,98398.75
2022-07-28T13:04:17.984Z,98407.56
2022-07-28T13:09:32.894Z,98392.63
2022-07-28T13:14:42.403Z,98397.09
2022-07-28T13:19:45.456Z,98391.91
2022-07-28T13:24:49.616Z,98387.63
2022-07-28T13:29:52.663Z,98390.13
2022-07-28T13:34:56.940Z,98397.19
2022-07-28T13:40:01.715Z,98389.78
2022-07-28T13:45:05.051Z,98380.13
2022-07-28T13:50:09.732Z,98378.19
2022-07-28T13:55:15.991Z,98377.13
2022-07-28T14:00:23.277Z,98370.19
2022-07-28T14:05:31.945Z,98366.50
2022-07-28T14:10:36.692Z,98367.75
2022-07-28T14:15:40.115Z,98358.66
2022-07-28T14:20:43.086Z,98359.97
2022-07-28T14:25:49.569Z,98355.03
2022-07-28T14:30:53.187Z,98355.88
2022-07-28T14:35:56.336Z,98352.97
2022-07-28T14:41:00.525Z,98355.47
2022-07-28T14:46:16.380Z,98345.78
2022-07-28T14:51:20.712Z,98343.81
2022-07-28T14:56:25.564Z,98346.75
2022-07-28T15:01:28.373Z,98343.81
2022-07-28T15:06:39.554Z,98332.81
2022-07-28T15:11:46.240Z,98324.19
2022-07-28T15:16:49.047Z,98327.22
2022-07-28T15:21:51.917Z,98331.88
2022-07-28T15:26:56.040Z,98321.25
2022-07-28T15:31:58.946Z,98323.66
2022-07-28T15:37:01.975Z,98314.84
2022-07-28T15:42:06.554Z,98315.78
2022-07-28T15:47:09.427Z,98313.13
2022-07-28T15:52:14.016Z,98301.66
2022-07-28T15:57:19.649Z,98303.56
2022-07-28T16:02:22.715Z,98304.06
2022-07-28T16:07:28.600Z,98297.16
2022-07-28T16:12:33.384Z,98294.91
2022-07-28T16:17:37.211Z,98291.09
2022-07-28T16:22:40.626Z,98289.78
2022-07-28T16:27:45.255Z,98283.72
2022-07-28T16:32:48.175Z,98283.03
2022-07-28T16:37:51.718Z,98278.25
2022-07-28T16:42:55.956Z,98276.47
2022-07-28T16:47:59.198Z,98280.13
2022-07-28T16:53:04.294Z,98279.38
2022-07-28T16:58:08.539Z,98273.03
2022-07-28T17:03:11.348Z,98281.69
2022-07-28T17:08:14.772Z,98263.41
2022-07-28T17:13:19.539Z,98266.63
2022-07-28T17:23:50.316Z,98277.22
2022-07-28T17:28:54.436Z,98280.22
2022-07-28T17:33:57.193Z,98270.97
2022-07-28T17:39:02.254Z,98259.16
2022-07-28T17:44:07.737Z,98261.31
2022-07-28T17:49:10.598Z,98259.97
2022-07-28T17:54:15.850Z,98258.53
2022-07-28T17:59:20.332Z,98261.03
2022-07-28T18:04:23.355Z,98259.19
2022-07-28T18:14:55.099Z,98264.84
2022-07-28T18:20:00.023Z,98266.66
2022-07-28T18:25:02.831Z,98269.72
2022-07-28T18:30:08.306Z,98269.34
2022-07-28T18:35:11.205Z,98267.09
2022-07-28T18:40:16.085Z,98270.72
2022-07-28T18:45:21.422Z,98278.13
2022-07-28T18:50:30.621Z,98289.28
2022-07-28T18:55:34.553Z,98288.50
2022-07-28T19:00:38.861Z,98292.50
2022-07-28T19:05:45.963Z,98291.06
2022-07-28T19:10:49.356Z,98295.69
2022-07-28T19:15:53.508Z,98298.00
2022-07-28T19:20:56.265Z,98295.56
2022-07-28T19:25:59.003Z,98289.94
2022-07-28T19:31:10.412Z,98293.06
2022-07-28T19:36:14.492Z,98302.03
2022-07-28T19:41:17.730Z,98309.34
2022-07-28T19:46:24.308Z,98310.16
2022-07-28T19:51:55.608Z,98312.44
2022-07-28T19:56:58.497Z,98312.66
2022-07-28T20:02:03.564Z,98316.81
2022-07-28T20:07:06.348Z,98336.16
2022-07-28T20:12:10.651Z,98337.78
2022-07-28T20:17:35.683Z,98345.69
2022-07-28T20:22:38.175Z,98352.53
2022-07-28T20:27:42.600Z,98352.84
2022-07-28T20:32:46.736Z,98351.34
2022-07-28T20:37:49.585Z,98348.97
2022-07-28T20:42:53.549Z,98354.75
2022-07-28T20:47:57.700Z,98367.00
2022-07-28T20:53:00.838Z,98363.81
2022-07-28T20:58:13.582Z,98374.34
2022-07-28T21:03:19.050Z,98373.66
2022-07-28T21:08:21.906Z,98376.06
2022-07-28T21:13:25.529Z,98380.97
2022-07-28T21:18:29.781Z,98373.75
2022-07-28T21:23:33.710Z,98378.63
2022-07-28T21:28:54.427Z,98379.59
2022-07-28T21:33:59.249Z,98387.75
2022-07-28T21:39:02.172Z,98394.59
2022-07-28T21:44:05.289Z,98394.97
2022-07-28T21:49:09.520Z,98392.81
2022-07-28T21:54:12.669Z,98395.66
2022-07-28T21:59:15.727Z,98398.84
2022-07-28T22:04:21.480Z,98392.78
2022-07-28T22:09:24.977Z,98402.28
2022-07-28T22:14:32.198Z,98405.75
2022-07-28T22:19:36.122Z,98399.03
2022-07-28T22:24:38.921Z,98402.69
2022-07-28T22:29:45.356Z,98404.09
2022-07-28T22:34:56.044Z,98401.28
2022-07-28T22:39:58.771Z,98386.81
2022-07-28T22:45:01.578Z,98396.53
2022-07-28T22:50:07.244Z,98395.88
2022-07-28T22:55:11.353Z,98396.97
2022-07-28T23:00:14.971Z,98386.34
2022-07-28T23:05:19.459Z,98393.44
2022-07-28T23:10:47.162Z,98395.78
2022-07-28T23:15:50.359Z,98393.25
2022-07-28T23:20:54.570Z,98385.34
2022-07-28T23:25:57.628Z,98387.75
2022-07-28T23:31:00.397Z,98385.44
2022-07-28T23:36:06.387Z,98384.34
2022-07-28T23:41:12.238Z,98378.94
2022-07-28T23:46:15.066Z,98385.72
2022-07-28T23:51:21.101Z,98385.25
2022-07-28T23:56:24.040Z,98378.06
